sensor_id;sensor_type;location;lat;lon;timestamp;pressure;altitude;pressure_sealevel;temperature;humidity
56518;BME280;42419;48.760;2.322;2023-02-20T00:00:07;102257.03;;;22.09;nan
56518;BME280;42419;48.760;2.322;2023-02-20T00:02:33;102258.72;;;22.11;nan
56518;BME280;42419;48.760;2.322;2023-02-20T00:04:58;102251.56;;;22.12;nan
56518;BME280;42419;48.760;2.322;2023-02-20T00:07:24;102244.53;;;22.08;nan
56518;BME280;42419;48.760;2.322;2023-02-20T00:09:49;102233.84;;;22.05;nan
56518;BME280;42419;48.760;2.322;2023-02-20T00:12:14;102246.19;;;22.12;nan
56518;BME280;42419;48.760;2.322;2023-02-20T00:14:40;102233.81;;;22.06;nan
56518;BME280;42419;48.760;2.322;2023-02-20T00:17:05;102250.72;;;22.10;nan
56518;BME280;42419;48.760;2.322;2023-02-20T00:19:30;102243.59;;;22.09;nan
56518;BME280;42419;48.760;2.322;2023-02-20T00:21:56;102243.63;;;22.07;nan
56518;BME280;42419;48.760;2.322;2023-02-20T00:24:21;102225.97;;;21.99;nan
56518;BME280;42419;48.760;2.322;2023-02-20T00:26:47;102240.06;;;22.07;nan
56518;BME280;42419;48.760;2.322;2023-02-20T00:29:18;102233.91;;;22.03;nan
56518;BME280;42419;48.760;2.322;2023-02-20T00:31:50;102242.78;;;22.05;nan
56518;BME280;42419;48.760;2.322;2023-02-20T00:34:15;102219.81;;;21.93;nan
56518;BME280;42419;48.760;2.322;2023-02-20T00:36:41;102235.59;;;22.06;nan
56518;BME280;42419;48.760;2.322;2023-02-20T00:39:06;102228.47;;;22.05;nan
56518;BME280;42419;48.760;2.322;2023-02-20T00:41:31;102224.06;;;22.04;nan
56518;BME280;42419;48.760;2.322;2023-02-20T00:43:57;102222.28;;;22.03;nan
56518;BME280;42419;48.760;2.322;2023-02-20T00:46:22;102224.09;;;22.02;nan
56518;BME280;42419;48.760;2.322;2023-02-20T00:48:47;102215.16;;;22.02;nan
56518;BME280;42419;48.760;2.322;2023-02-20T00:51:15;102217.84;;;22.00;nan
56518;BME280;42419;48.760;2.322;2023-02-20T00:53:40;102222.38;;;22.00;nan
56518;BME280;42419;48.760;2.322;2023-02-20T00:56:06;102224.16;;;21.99;nan
56518;BME280;42419;48.760;2.322;2023-02-20T00:58:31;102213.66;;;21.90;nan
56518;BME280;42419;48.760;2.322;2023-02-20T01:00:56;102217.06;;;21.96;nan
56518;BME280;42419;48.760;2.322;2023-02-20T01:03:22;102217.91;;;21.99;nan
56518;BME280;42419;48.760;2.322;2023-02-20T01:05:47;102217.91;;;21.99;nan
56518;BME280;42419;48.760;2.322;2023-02-20T01:08:12;102215.38;;;21.92;nan
56518;BME280;42419;48.760;2.322;2023-02-20T01:10:38;102170.38;;;21.67;nan
56518;BME280;42419;48.760;2.322;2023-02-20T01:13:03;102210.81;;;21.96;nan
56518;BME280;42419;48.760;2.322;2023-02-20T01:15:28;102208.13;;;21.96;nan
56518;BME280;42419;48.760;2.322;2023-02-20T01:17:54;102208.19;;;21.94;nan
56518;BME280;42419;48.760;2.322;2023-02-20T01:20:19;102199.38;;;21.89;nan
56518;BME280;42419;48.760;2.322;2023-02-20T01:22:44;102209.06;;;21.95;nan
56518;BME280;42419;48.760;2.322;2023-02-20T01:25:12;102187.03;;;21.81;nan
56518;BME280;42419;48.760;2.322;2023-02-20T01:27:37;102194.97;;;21.85;nan
56518;BME280;42419;48.760;2.322;2023-02-20T01:30:03;102190.44;;;21.89;nan
56518;BME280;42419;48.760;2.322;2023-02-20T01:32:28;102201.03;;;21.93;nan
56518;BME280;42419;48.760;2.322;2023-02-20T01:34:53;102208.19;;;21.94;nan
56518;BME280;42419;48.760;2.322;2023-02-20T01:37:19;102190.50;;;21.84;nan
56518;BME280;42419;48.760;2.322;2023-02-20T01:39:46;102190.63;;;21.80;nan
56518;BME280;42419;48.760;2.322;2023-02-20T01:42:17;102210.88;;;21.93;nan
56518;BME280;42419;48.760;2.322;2023-02-20T01:44:43;102218.91;;;21.94;nan
56518;BME280;42419;48.760;2.322;2023-02-20T01:47:11;102211.78;;;21.93;nan
56518;BME280;42419;48.760;2.322;2023-02-20T01:49:45;102207.28;;;21.94;nan
56518;BME280;42419;48.760;2.322;2023-02-20T01:52:21;102196.72;;;21.86;nan
56518;BME280;42419;48.760;2.322;2023-02-20T01:54:52;102207.28;;;21.94;nan
56518;BME280;42419;48.760;2.322;2023-02-20T01:57:22;102211.75;;;21.95;nan
56518;BME280;42419;48.760;2.322;2023-02-20T01:59:51;102210.88;;;21.93;nan
56518;BME280;42419;48.760;2.322;2023-02-20T02:02:19;102215.38;;;21.92;nan
56518;BME280;42419;48.760;2.322;2023-02-20T02:04:45;102209.97;;;21.94;nan
56518;BME280;42419;48.760;2.322;2023-02-20T02:07:12;102204.72;;;21.89;nan
56518;BME280;42419;48.760;2.322;2023-02-20T02:09:43;102221.63;;;21.91;nan
56518;BME280;42419;48.760;2.322;2023-02-20T02:12:09;102211.81;;;21.92;nan
56518;BME280;42419;48.760;2.322;2023-02-20T02:14:35;102217.13;;;21.95;nan
56518;BME280;42419;48.760;2.322;2023-02-20T02:17:17;102203.00;;;21.85;nan
56518;BME280;42419;48.760;2.322;2023-02-20T02:28:52;102203.75;;;21.92;nan
56518;BME280;42419;48.760;2.322;2023-02-20T02:37:02;102177.84;;;21.91;nan
56518;BME280;42419;48.760;2.322;2023-02-20T02:39:55;102167.19;;;21.89;nan
56518;BME280;42419;48.760;2.322;2023-02-20T02:42:26;102177.81;;;21.92;nan
56518;BME280;42419;48.760;2.322;2023-02-20T02:45:14;102146.91;;;21.76;nan
56518;BME280;42419;48.760;2.322;2023-02-20T02:47:50;102166.28;;;21.90;nan
56518;BME280;42419;48.760;2.322;2023-02-20T02:50:22;102153.84;;;21.85;nan
56518;BME280;42419;48.760;2.322;2023-02-20T02:52:50;102137.88;;;21.80;nan
56518;BME280;42419;48.760;2.322;2023-02-20T02:55:23;102144.00;;;21.85;nan
56518;BME280;42419;48.760;2.322;2023-02-20T02:57:50;102157.28;;;21.91;nan
56518;BME280;42419;48.760;2.322;2023-02-20T03:06:08;102148.34;;;21.91;nan
56518;BME280;42419;48.760;2.322;2023-02-20T03:11:12;102139.50;;;21.87;nan
56518;BME280;42419;48.760;2.322;2023-02-20T03:13:42;102152.88;;;21.90;nan
56518;BME280;42419;48.760;2.322;2023-02-20T03:16:33;102151.09;;;21.89;nan
56518;BME280;42419;48.760;2.322;2023-02-20T03:19:01;102142.13;;;21.90;nan
56518;BME280;42419;48.760;2.322;2023-02-20T03:21:31;102137.69;;;21.89;nan
56518;BME280;42419;48.760;2.322;2023-02-20T03:23:59;102109.44;;;21.73;nan
56518;BME280;42419;48.760;2.322;2023-02-20T03:26:30;102117.38;;;21.78;nan
56518;BME280;42419;48.760;2.322;2023-02-20T03:29:01;102103.34;;;21.68;nan
56518;BME280;42419;48.760;2.322;2023-02-20T03:31:32;102151.03;;;21.91;nan
56518;BME280;42419;48.760;2.322;2023-02-20T03:34:30;102126.16;;;21.84;nan
56518;BME280;42419;48.760;2.322;2023-02-20T03:37:18;102135.88;;;21.90;nan
56518;BME280;42419;48.760;2.322;2023-02-20T03:40:06;102119.13;;;21.79;nan
56518;BME280;42419;48.760;2.322;2023-02-20T03:42:56;102121.63;;;21.88;nan
56518;BME280;42419;48.760;2.322;2023-02-20T03:45:42;102122.47;;;21.90;nan
56518;BME280;42419;48.760;2.322;2023-02-20T03:48:14;102119.81;;;21.90;nan
56518;BME280;42419;48.760;2.322;2023-02-20T03:50:40;102105.63;;;21.83;nan
56518;BME280;42419;48.760;2.322;2023-02-20T03:53:06;102108.09;;;21.92;nan
56518;BME280;42419;48.760;2.322;2023-02-20T03:55:32;102109.91;;;21.92;nan
56518;BME280;42419;48.760;2.322;2023-02-20T03:58:00;102099.34;;;21.86;nan
56518;BME280;42419;48.760;2.322;2023-02-20T04:00:32;102098.28;;;21.91;nan
56518;BME280;42419;48.760;2.322;2023-02-20T04:03:02;102097.38;;;21.92;nan
56518;BME280;42419;48.760;2.322;2023-02-20T04:05:36;102088.44;;;21.92;nan
56518;BME280;42419;48.760;2.322;2023-02-20T04:08:22;102089.34;;;21.92;nan
56518;BME280;42419;48.760;2.322;2023-02-20T04:10:52;102082.16;;;21.93;nan
56518;BME280;42419;48.760;2.322;2023-02-20T04:13:19;102090.25;;;21.91;nan
56518;BME280;42419;48.760;2.322;2023-02-20T04:15:45;102081.38;;;21.89;nan
56518;BME280;42419;48.760;2.322;2023-02-20T04:18:16;102053.97;;;21.77;nan
56518;BME280;42419;48.760;2.322;2023-02-20T04:20:47;102089.34;;;21.92;nan
56518;BME280;42419;48.760;2.322;2023-02-20T04:23:19;102065.56;;;21.77;nan
56518;BME280;42419;48.760;2.322;2023-02-20T04:25:53;102085.81;;;21.90;nan
56518;BME280;42419;48.760;2.322;2023-02-20T04:28:20;102084.06;;;21.89;nan
56518;BME280;42419;48.760;2.322;2023-02-20T04:30:46;102086.66;;;21.92;nan
56518;BME280;42419;48.760;2.322;2023-02-20T04:33:13;102087.53;;;21.93;nan
56518;BME280;42419;48.760;2.322;2023-02-20T04:35:39;102086.66;;;21.92;nan
56518;BME280;42419;48.760;2.322;2023-02-20T04:38:06;102081.28;;;21.92;nan
56518;BME280;42419;48.760;2.322;2023-02-20T04:40:31;102065.41;;;21.83;nan
56518;BME280;42419;48.760;2.322;2023-02-20T04:42:57;102084.84;;;21.93;nan
56518;BME280;42419;48.760;2.322;2023-02-20T04:45:23;102089.34;;;21.92;nan
56518;BME280;42419;48.760;2.322;2023-02-20T04:47:48;102085.72;;;21.93;nan
56518;BME280;42419;48.760;2.322;2023-02-20T04:50:27;102079.50;;;21.91;nan
56518;BME280;42419;48.760;2.322;2023-02-20T04:52:53;102065.41;;;21.83;nan
56518;BME280;42419;48.760;2.322;2023-02-20T04:55:18;102092.91;;;21.91;nan
56518;BME280;42419;48.760;2.322;2023-02-20T04:57:45;102071.66;;;21.82;nan
56518;BME280;42419;48.760;2.322;2023-02-20T05:00:12;102084.13;;;21.85;nan
56518;BME280;42419;48.760;2.322;2023-02-20T05:02:39;102090.25;;;21.91;nan
56518;BME280;42419;48.760;2.322;2023-02-20T05:05:06;102093.81;;;21.92;nan
56518;BME280;42419;48.760;2.322;2023-02-20T05:07:33;102070.75;;;21.83;nan
56518;BME280;42419;48.760;2.322;2023-02-20T05:09:59;102087.56;;;21.91;nan
56518;BME280;42419;48.760;2.322;2023-02-20T05:12:24;102087.56;;;21.91;nan
56518;BME280;42419;48.760;2.322;2023-02-20T05:14:49;102100.97;;;21.91;nan
56518;BME280;42419;48.760;2.322;2023-02-20T05:17:15;102091.19;;;21.90;nan
56518;BME280;42419;48.760;2.322;2023-02-20T05:19:42;102083.16;;;21.90;nan
56518;BME280;42419;48.760;2.322;2023-02-20T05:22:11;102060.22;;;21.77;nan
56518;BME280;42419;48.760;2.322;2023-02-20T05:24:44;102066.38;;;21.81;nan
56518;BME280;42419;48.760;2.322;2023-02-20T05:27:10;102084.88;;;21.91;nan
56518;BME280;42419;48.760;2.322;2023-02-20T05:29:35;102084.88;;;21.91;nan
56518;BME280;42419;48.760;2.322;2023-02-20T05:32:01;102076.84;;;21.91;nan
56518;BME280;42419;48.760;2.322;2023-02-20T05:34:26;102074.16;;;21.91;nan
56518;BME280;42419;48.760;2.322;2023-02-20T05:36:52;102067.88;;;21.92;nan
56518;BME280;42419;48.760;2.322;2023-02-20T05:39:19;102067.06;;;21.90;nan
56518;BME280;42419;48.760;2.322;2023-02-20T05:41:44;102073.25;;;21.92;nan
56518;BME280;42419;48.760;2.322;2023-02-20T05:44:10;102068.94;;;21.85;nan
56518;BME280;42419;48.760;2.322;2023-02-20T05:46:40;102078.63;;;21.91;nan
56518;BME280;42419;48.760;2.322;2023-02-20T05:49:06;102078.59;;;21.92;nan
56518;BME280;42419;48.760;2.322;2023-02-20T05:51:31;102072.34;;;21.92;nan
56518;BME280;42419;48.760;2.322;2023-02-20T05:53:56;102048.59;;;21.77;nan
56518;BME280;42419;48.760;2.322;2023-02-20T05:56:22;102070.56;;;21.92;nan
56518;BME280;42419;48.760;2.322;2023-02-20T05:58:48;102075.03;;;21.92;nan
56518;BME280;42419;48.760;2.322;2023-02-20T06:01:25;102037.94;;;21.74;nan
56518;BME280;42419;48.760;2.322;2023-02-20T06:03:51;102064.31;;;21.92;nan
56518;BME280;42419;48.760;2.322;2023-02-20T06:06:17;102057.19;;;21.91;nan
56518;BME280;42419;48.760;2.322;2023-02-20T06:08:42;102046.69;;;21.82;nan
56518;BME280;42419;48.760;2.322;2023-02-20T06:11:09;102056.25;;;21.92;nan
56518;BME280;42419;48.760;2.322;2023-02-20T06:13:35;102069.66;;;21.92;nan
56518;BME280;42419;48.760;2.322;2023-02-20T06:16:01;102061.63;;;21.92;nan
56518;BME280;42419;48.760;2.322;2023-02-20T06:18:26;102066.09;;;21.93;nan
56518;BME280;42419;48.760;2.322;2023-02-20T06:20:52;102058.06;;;21.91;nan
56518;BME280;42419;48.760;2.322;2023-02-20T06:23:17;102067.91;;;21.91;nan
56518;BME280;42419;48.760;2.322;2023-02-20T06:25:42;102066.97;;;21.93;nan
56518;BME280;42419;48.760;2.322;2023-02-20T06:28:08;102068.72;;;21.94;nan
56518;BME280;42419;48.760;2.322;2023-02-20T06:30:33;102066.94;;;21.95;nan
56518;BME280;42419;48.760;2.322;2023-02-20T06:32:59;102063.44;;;21.91;nan
56518;BME280;42419;48.760;2.322;2023-02-20T06:35:24;102069.56;;;21.96;nan
56518;BME280;42419;48.760;2.322;2023-02-20T06:37:49;102046.69;;;21.82;nan
56518;BME280;42419;48.760;2.322;2023-02-20T06:40:14;102082.97;;;21.96;nan
56518;BME280;42419;48.760;2.322;2023-02-20T06:42:40;102080.25;;;21.98;nan
56518;BME280;42419;48.760;2.322;2023-02-20T06:45:06;102080.22;;;22.00;nan
56518;BME280;42419;48.760;2.322;2023-02-20T06:47:31;102051.09;;;21.86;nan
56518;BME280;42419;48.760;2.322;2023-02-20T06:49:56;102070.53;;;21.94;nan
56518;BME280;42419;48.760;2.322;2023-02-20T06:52:22;102086.41;;;22.02;nan
56518;BME280;42419;48.760;2.322;2023-02-20T06:54:47;102074.88;;;22.00;nan
56518;BME280;42419;48.760;2.322;2023-02-20T06:57:13;102069.56;;;21.96;nan
56518;BME280;42419;48.760;2.322;2023-02-20T06:59:39;102072.97;;;22.03;nan
56518;BME280;42419;48.760;2.322;2023-02-20T07:02:10;102049.09;;;21.92;nan
56518;BME280;42419;48.760;2.322;2023-02-20T07:04:36;102071.13;;;22.05;nan
56518;BME280;42419;48.760;2.322;2023-02-20T07:07:01;102067.59;;;22.03;nan
56518;BME280;42419;48.760;2.322;2023-02-20T07:09:27;102077.31;;;22.07;nan
56518;BME280;42419;48.760;2.322;2023-02-20T07:11:53;102084.47;;;22.08;nan
56518;BME280;42419;48.760;2.322;2023-02-20T07:14:19;102074.88;;;22.00;nan
56518;BME280;42419;48.760;2.322;2023-02-20T07:16:44;102088.84;;;22.11;nan
56518;BME280;42419;48.760;2.322;2023-02-20T07:19:09;102098.59;;;22.13;nan
56518;BME280;42419;48.760;2.322;2023-02-20T07:21:35;102101.28;;;22.13;nan
56518;BME280;42419;48.760;2.322;2023-02-20T07:24:00;102101.28;;;22.13;nan
56518;BME280;42419;48.760;2.322;2023-02-20T07:26:27;102102.16;;;22.14;nan
56518;BME280;42419;48.760;2.322;2023-02-20T07:28:54;102108.41;;;22.14;nan
56518;BME280;42419;48.760;2.322;2023-02-20T07:31:22;102103.06;;;22.14;nan
56518;BME280;42419;48.760;2.322;2023-02-20T07:33:48;102101.44;;;22.09;nan
56518;BME280;42419;48.760;2.322;2023-02-20T07:36:15;102080.16;;;22.01;nan
56518;BME280;42419;48.760;2.322;2023-02-20T07:38:41;102104.81;;;22.15;nan
56518;BME280;42419;48.760;2.322;2023-02-20T07:41:07;102116.41;;;22.17;nan
56518;BME280;42419;48.760;2.322;2023-02-20T07:43:33;102116.44;;;22.16;nan
56518;BME280;42419;48.760;2.322;2023-02-20T07:45:58;102099.59;;;22.11;nan
56518;BME280;42419;48.760;2.322;2023-02-20T07:48:23;102105.63;;;22.19;nan
56518;BME280;42419;48.760;2.322;2023-02-20T07:50:49;102105.63;;;22.19;nan
56518;BME280;42419;48.760;2.322;2023-02-20T07:53:17;102089.00;;;22.05;nan
56518;BME280;42419;48.760;2.322;2023-02-20T07:55:43;102109.16;;;22.21;nan
56518;BME280;42419;48.760;2.322;2023-02-20T07:58:08;102109.09;;;22.22;nan
56518;BME280;42419;48.760;2.322;2023-02-20T08:00:34;102101.16;;;22.18;nan
56518;BME280;42419;48.760;2.322;2023-02-20T08:02:59;102107.28;;;22.23;nan
56518;BME280;42419;48.760;2.322;2023-02-20T08:05:25;102107.28;;;22.23;nan
56518;BME280;42419;48.760;2.322;2023-02-20T08:07:51;102107.28;;;22.23;nan
56518;BME280;42419;48.760;2.322;2023-02-20T08:10:21;102117.13;;;22.24;nan
56518;BME280;42419;48.760;2.322;2023-02-20T08:12:47;102103.81;;;22.19;nan
56518;BME280;42419;48.760;2.322;2023-02-20T08:15:13;102113.50;;;22.25;nan
56518;BME280;42419;48.760;2.322;2023-02-20T08:17:39;102121.56;;;22.25;nan
56518;BME280;42419;48.760;2.322;2023-02-20T08:20:06;102123.34;;;22.26;nan
56518;BME280;42419;48.760;2.322;2023-02-20T08:22:32;102102.03;;;22.20;nan
56518;BME280;42419;48.760;2.322;2023-02-20T08:24:58;102112.50;;;22.29;nan
56518;BME280;42419;48.760;2.322;2023-02-20T08:27:24;102115.22;;;22.27;nan
56518;BME280;42419;48.760;2.322;2023-02-20T08:29:50;102119.56;;;22.33;nan
56518;BME280;42419;48.760;2.322;2023-02-20T08:32:15;102124.81;;;22.36;nan
56518;BME280;42419;48.760;2.322;2023-02-20T08:34:40;102100.00;;;22.28;nan
56518;BME280;42419;48.760;2.322;2023-02-20T08:37:06;102109.44;;;22.42;nan
56518;BME280;42419;48.760;2.322;2023-02-20T08:39:34;102110.13;;;22.51;nan
56518;BME280;42419;48.760;2.322;2023-02-20T08:41:59;102117.66;;;22.70;nan
56518;BME280;42419;48.760;2.322;2023-02-20T08:44:25;102124.47;;;22.82;nan
56518;BME280;42419;48.760;2.322;2023-02-20T08:46:50;102124.16;;;22.93;nan
56518;BME280;42419;48.760;2.322;2023-02-20T08:49:17;102123.78;;;23.05;nan
56518;BME280;42419;48.760;2.322;2023-02-20T08:51:44;102119.94;;;23.13;nan
56518;BME280;42419;48.760;2.322;2023-02-20T08:54:10;102123.31;;;23.21;nan
56518;BME280;42419;48.760;2.322;2023-02-20T08:56:35;102121.22;;;23.31;nan
56518;BME280;42419;48.760;2.322;2023-02-20T08:59:01;102110.34;;;23.34;nan
56518;BME280;42419;48.760;2.322;2023-02-20T09:01:26;102124.34;;;23.45;nan
56518;BME280;42419;48.760;2.322;2023-02-20T09:03:51;102117.03;;;23.50;nan
56518;BME280;42419;48.760;2.322;2023-02-20T09:06:17;102107.09;;;23.52;nan
56518;BME280;42419;48.760;2.322;2023-02-20T09:08:42;102105.97;;;23.59;nan
56518;BME280;42419;48.760;2.322;2023-02-20T09:11:07;102116.59;;;23.64;nan
56518;BME280;42419;48.760;2.322;2023-02-20T09:13:40;102120.97;;;23.66;nan
56518;BME280;42419;48.760;2.322;2023-02-20T09:16:06;102113.63;;;23.71;nan
56518;BME280;42419;48.760;2.322;2023-02-20T09:18:32;102107.34;;;23.72;nan
56518;BME280;42419;48.760;2.322;2023-02-20T09:20:57;102114.47;;;23.73;nan
56518;BME280;42419;48.760;2.322;2023-02-20T09:23:23;102113.53;;;23.74;nan
56518;BME280;42419;48.760;2.322;2023-02-20T09:25:49;102113.47;;;23.76;nan
56518;BME280;42419;48.760;2.322;2023-02-20T09:28:15;102110.75;;;23.78;nan
56518;BME280;42419;48.760;2.322;2023-02-20T09:30:40;102117.88;;;23.79;nan
56518;BME280;42419;48.760;2.322;2023-02-20T09:33:06;102095.72;;;23.70;nan
56518;BME280;42419;48.760;2.322;2023-02-20T09:35:31;102115.25;;;23.77;nan
56518;BME280;42419;48.760;2.322;2023-02-20T09:37:57;102093.03;;;23.70;nan
56518;BME280;42419;48.760;2.322;2023-02-20T09:40:24;102104.38;;;23.80;nan
56518;BME280;42419;48.760;2.322;2023-02-20T09:43:01;102107.06;;;23.80;nan
56518;BME280;42419;48.760;2.322;2023-02-20T09:45:31;102107.94;;;23.81;nan
56518;BME280;42419;48.760;2.322;2023-02-20T09:50:36;102099.88;;;23.81;nan
56518;BME280;42419;48.760;2.322;2023-02-20T09:55:51;102082.09;;;23.77;nan
56518;BME280;42419;48.760;2.322;2023-02-20T09:58:40;102096.06;;;23.88;nan
56518;BME280;42419;48.760;2.322;2023-02-20T10:01:08;102108.53;;;23.92;nan
56518;BME280;42419;48.760;2.322;2023-02-20T10:03:55;102102.19;;;23.93;nan
56518;BME280;42419;48.760;2.322;2023-02-20T10:06:30;102093.19;;;23.94;nan
56518;BME280;42419;48.760;2.322;2023-02-20T10:08:55;102083.19;;;23.97;nan
56518;BME280;42419;48.760;2.322;2023-02-20T10:11:51;102090.22;;;24.01;nan
56518;BME280;42419;48.760;2.322;2023-02-20T10:14:36;102080.16;;;24.08;nan
56518;BME280;42419;48.760;2.322;2023-02-20T10:30:11;102081.84;;;24.35;nan
56518;BME280;42419;48.760;2.322;2023-02-20T10:32:54;102079.16;;;24.35;nan
56518;BME280;42419;48.760;2.322;2023-02-20T10:35:24;102091.53;;;24.41;nan
56518;BME280;42419;48.760;2.322;2023-02-20T10:37:56;102084.31;;;24.41;nan
56518;BME280;42419;48.760;2.322;2023-02-20T10:40:30;102086.16;;;24.41;nan
56518;BME280;42419;48.760;2.322;2023-02-20T10:45:51;102088.88;;;24.39;nan
56518;BME280;42419;48.760;2.322;2023-02-20T10:48:18;102071.13;;;24.34;nan
56518;BME280;42419;48.760;2.322;2023-02-20T10:53:21;102088.84;;;24.41;nan
56518;BME280;42419;48.760;2.322;2023-02-20T11:01:34;102084.47;;;24.37;nan
56518;BME280;42419;48.760;2.322;2023-02-20T11:07:03;102083.78;;;24.32;nan
56518;BME280;42419;48.760;2.322;2023-02-20T11:09:31;102077.41;;;24.34;nan
56518;BME280;42419;48.760;2.322;2023-02-20T11:11:56;102075.63;;;24.33;nan
56518;BME280;42419;48.760;2.322;2023-02-20T11:14:43;102067.69;;;24.30;nan
56518;BME280;42419;48.760;2.322;2023-02-20T11:17:17;102060.53;;;24.29;nan
56518;BME280;42419;48.760;2.322;2023-02-20T11:19:48;102059.59;;;24.30;nan
56518;BME280;42419;48.760;2.322;2023-02-20T11:22:15;102060.47;;;24.31;nan
56518;BME280;42419;48.760;2.322;2023-02-20T11:24:43;102050.69;;;24.28;nan
56518;BME280;42419;48.760;2.322;2023-02-20T11:27:11;102047.13;;;24.28;nan
56518;BME280;42419;48.760;2.322;2023-02-20T11:29:47;102039.16;;;24.25;nan
56518;BME280;42419;48.760;2.322;2023-02-20T11:32:30;102043.41;;;24.32;nan
56518;BME280;42419;48.760;2.322;2023-02-20T11:37:41;102024.59;;;24.30;nan
56518;BME280;42419;48.760;2.322;2023-02-20T11:40:24;102025.41;;;24.32;nan
56518;BME280;42419;48.760;2.322;2023-02-20T11:42:52;102031.50;;;24.37;nan
56518;BME280;42419;48.760;2.322;2023-02-20T11:48:21;102019.63;;;24.43;nan
56518;BME280;42419;48.760;2.322;2023-02-20T11:50:52;102020.56;;;24.42;nan
56518;BME280;42419;48.760;2.322;2023-02-20T11:53:31;102001.91;;;24.37;nan
56518;BME280;42419;48.760;2.322;2023-02-20T11:58:39;102010.56;;;24.45;nan
56518;BME280;42419;48.760;2.322;2023-02-20T12:01:05;101997.97;;;24.46;nan
56518;BME280;42419;48.760;2.322;2023-02-20T12:03:32;101994.34;;;24.47;nan
56518;BME280;42419;48.760;2.322;2023-02-20T12:06:00;101993.47;;;24.48;nan
56518;BME280;42419;48.760;2.322;2023-02-20T12:08:36;101933.78;;;24.12;nan
56518;BME280;42419;48.760;2.322;2023-02-20T12:11:23;101985.25;;;24.51;nan
56518;BME280;42419;48.760;2.322;2023-02-20T12:13:51;101982.50;;;24.52;nan
56518;BME280;42419;48.760;2.322;2023-02-20T12:21:30;101969.75;;;24.57;nan
56518;BME280;42419;48.760;2.322;2023-02-20T12:26:50;101952.16;;;24.47;nan
56518;BME280;42419;48.760;2.322;2023-02-20T12:29:27;101952.91;;;24.52;nan
56518;BME280;42419;48.760;2.322;2023-02-20T12:34:49;101944.06;;;24.49;nan
56518;BME280;42419;48.760;2.322;2023-02-20T12:37:33;101952.16;;;24.49;nan
56518;BME280;42419;48.760;2.322;2023-02-20T12:48:41;101909.38;;;24.40;nan
56518;BME280;42419;48.760;2.322;2023-02-20T12:54:42;101912.69;;;24.48;nan
56518;BME280;42419;48.760;2.322;2023-02-20T13:00:03;101895.22;;;24.35;nan
56518;BME280;42419;48.760;2.322;2023-02-20T13:05:05;101912.69;;;24.46;nan
56518;BME280;42419;48.760;2.322;2023-02-20T13:07:42;101902.84;;;24.45;nan
56518;BME280;42419;48.760;2.322;2023-02-20T13:10:21;101902.84;;;24.45;nan
56518;BME280;42419;48.760;2.322;2023-02-20T13:12:49;101892.97;;;24.46;nan
56518;BME280;42419;48.760;2.322;2023-02-20T13:15:32;101888.72;;;24.40;nan
56518;BME280;42419;48.760;2.322;2023-02-20T13:18:13;101890.34;;;24.44;nan
56518;BME280;42419;48.760;2.322;2023-02-20T13:20:48;101885.06;;;24.41;nan
56518;BME280;42419;48.760;2.322;2023-02-20T13:25:43;101876.19;;;24.39;nan
56518;BME280;42419;48.760;2.322;2023-02-20T13:28:36;101874.56;;;24.35;nan
56518;BME280;42419;48.760;2.322;2023-02-20T13:33:35;101863.16;;;24.29;nan
56518;BME280;42419;48.760;2.322;2023-02-20T13:36:04;101866.59;;;24.32;nan
56518;BME280;42419;48.760;2.322;2023-02-20T13:38:30;101844.63;;;24.21;nan
56518;BME280;42419;48.760;2.322;2023-02-20T13:48:52;101841.97;;;24.20;nan
56518;BME280;42419;48.760;2.322;2023-02-20T13:53:50;101845.72;;;24.15;nan
56518;BME280;42419;48.760;2.322;2023-02-20T13:56:20;101835.09;;;24.12;nan
56518;BME280;42419;48.760;2.322;2023-02-20T13:58:46;101821.16;;;24.01;nan
56518;BME280;42419;48.760;2.322;2023-02-20T14:01:13;101830.69;;;24.10;nan
56518;BME280;42419;48.760;2.322;2023-02-20T14:03:39;101830.78;;;24.08;nan
56518;BME280;42419;48.760;2.322;2023-02-20T14:06:13;101822.81;;;24.05;nan
56518;BME280;42419;48.760;2.322;2023-02-20T14:08:42;101830.03;;;24.05;nan
56518;BME280;42419;48.760;2.322;2023-02-20T14:11:23;101830.19;;;24.00;nan
56518;BME280;42419;48.760;2.322;2023-02-20T14:13:50;101818.47;;;24.01;nan
56518;BME280;42419;48.760;2.322;2023-02-20T14:16:38;101817.72;;;23.98;nan
56518;BME280;42419;48.760;2.322;2023-02-20T14:19:12;101812.41;;;23.96;nan
56518;BME280;42419;48.760;2.322;2023-02-20T14:21:39;101801.91;;;23.90;nan
56518;BME280;42419;48.760;2.322;2023-02-20T14:24:23;101813.41;;;23.94;nan
56518;BME280;42419;48.760;2.322;2023-02-20T14:26:49;101801.06;;;23.88;nan
56518;BME280;42419;48.760;2.322;2023-02-20T14:29:25;101809.91;;;23.92;nan
56518;BME280;42419;48.760;2.322;2023-02-20T14:31:52;101785.19;;;23.81;nan
56518;BME280;42419;48.760;2.322;2023-02-20T14:42:48;101778.94;;;23.80;nan
56518;BME280;42419;48.760;2.322;2023-02-20T14:45:20;101782.50;;;23.81;nan
56518;BME280;42419;48.760;2.322;2023-02-20T14:47:57;101773.50;;;23.82;nan
56518;BME280;42419;48.760;2.322;2023-02-20T14:50:28;101763.63;;;23.82;nan
56518;BME280;42419;48.760;2.322;2023-02-20T14:53:11;101758.31;;;23.81;nan
56518;BME280;42419;48.760;2.322;2023-02-20T14:55:38;101742.47;;;23.73;nan
56518;BME280;42419;48.760;2.322;2023-02-20T14:58:15;101753.81;;;23.81;nan
56518;BME280;42419;48.760;2.322;2023-02-20T15:00:42;101729.22;;;23.68;nan
56518;BME280;42419;48.760;2.322;2023-02-20T15:03:10;101737.16;;;23.71;nan
56518;BME280;42419;48.760;2.322;2023-02-20T15:05:43;101751.16;;;23.80;nan
56518;BME280;42419;48.760;2.322;2023-02-20T15:11:05;101723.13;;;23.63;nan
56518;BME280;42419;48.760;2.322;2023-02-20T15:13:35;101745.09;;;23.74;nan
56518;BME280;42419;48.760;2.322;2023-02-20T15:16:23;101741.59;;;23.72;nan
56518;BME280;42419;48.760;2.322;2023-02-20T15:18:51;101732.66;;;23.72;nan